Terminal Aerodrome Forecast
Issued by NWS

Home | Current Version | Previous Version | Text Only | Print | Product List | Glossary On
Versions: 1 2 3 4 5 6 7 8 9 10 11 12 13 14 15 16 17
000
FTUS44 KEPZ 242338
TAFTCS
TAF
KTCS 242338Z 2500/2524 21006KT P6SM VCTS SCT080CB SCT130 BKN250
      TEMPO 2500/2502 VRB15G30KT 4SM -TSRAGS SCT070CB SCT130 BKN250
     FM250300 36006KT P6SM SCT080 SCT130 BKN250
     FM250500 30006KT P6SM SCT060 SCT200
     FM251200 02007KT P6SM SCT120 SCT200
     FM251900 02006KT P6SM SCT080 SCT120 BKN250=

USA.gov is the U.S. government's official web portal to all federal, state and local government web resources and services.